Time;durP1;ratioP1;P1;durP2;ratioP2;P2;SDS_P1;SDS_P2;PMS_P1;PMS_P2;Temp;Humidity;BMP_temperature;BMP_pressure;BME280_temperature;BME280_humidity;BME280_pressure;Samples;Min_cycle;Max_cycle;Signal;HPM_P1;HPM_P2
2022/05/22 00:00:10;;;;;;;;;;;;;;;;;;348689;28;912;-78
2022/05/22 00:00:22;;;;;;;;;;;;;;;;;;348720;28;858;-78
2022/05/22 00:00:32;;;;;;;;;;;;;;;;;;348785;28;1629;-79
2022/05/22 00:00:43;;;;;;;;;;;;;;;;;;350110;28;838;-77
2022/05/22 00:00:53;;;;;;;;;;;;;;;;;;350159;28;849;-77
2022/05/22 00:01:03;;;;;;;;;;;;;;;;;;349931;28;1214;-78
2022/05/22 00:01:14;;;;;;;;;;;;;;;;;;350100;28;944;-77
2022/05/22 00:01:26;;;;;;;;;;;;;;;;;;350131;28;813;-78
2022/05/22 00:01:37;;;;;;;;;;;;;;;;;;350123;28;888;-78
2022/05/22 00:01:47;;;;;;;;;;;;;;;;;;350103;28;822;-78
2022/05/22 00:01:57;;;;;;;;;;;;;;;;;;350023;28;905;-77
2022/05/22 00:02:09;;;;;;;;;;;;;;;;;;350025;28;1299;-78
2022/05/22 00:02:20;;;;;;;;;;;;;;;;;;350126;28;1023;-77
2022/05/22 00:02:30;;;;;;;;;;;;;;;;;;350121;28;853;-77
2022/05/22 00:02:41;;;;;;;;;;;;;;;;;;350108;28;917;-77
2022/05/22 00:02:51;;;;;;;;;;;;;;;;;;350089;28;980;-77
2022/05/22 00:03:02;;;;;;;;;;;;;;;;;;350122;28;988;-77
2022/05/22 00:03:12;;;;;;;;;;;;;;;;;;350125;28;1003;-77
2022/05/22 00:03:22;;;;;;;;;;;;;;;;;;350114;28;912;-77
2022/05/22 00:03:32;;;;;;;;;;;;;;;;;;350047;28;798;-78
2022/05/22 00:03:42;;;;;;;;;;;;;;;;;;350091;28;916;-77
2022/05/22 00:03:53;;;;;;;;;;;;;;;;;;350063;28;787;-77
2022/05/22 00:04:03;;;;;;;;;;;;;;;;;;349919;28;1024;-77
2022/05/22 00:04:13;;;;;;;;;;;;;;;;;;350133;28;936;-77
2022/05/22 00:04:24;;;;;;;;;;;;;;;;;;349915;28;1017;-77
2022/05/22 00:04:34;;;;;;;;;;;;;;;;;;350083;28;928;-77
2022/05/22 00:04:44;;;;;;;;;;;;;;;;;;350100;28;909;-78
2022/05/22 00:04:55;;;;;;;;;;;;;;;;;;350112;28;866;-77
2022/05/22 00:05:05;;;;;;;;;;;;;;;;;;350073;28;1016;-77
2022/05/22 00:05:17;;;;;;;;;;;;;;;;;;349621;28;1288;-77
2022/05/22 00:05:28;;;;;;;;;;;;;;;;;;350132;28;1127;-77
2022/05/22 00:05:38;;;;;;;;;;;;;;;;;;350123;28;774;-78
2022/05/22 00:05:48;;;;;;;;;;;;;;;;;;350081;28;846;-77
2022/05/22 00:05:59;;;;;;;;;;;;;;;;;;349996;28;881;-77
2022/05/22 00:06:09;;;;;;;;;;;;;;;;;;350097;28;976;-78
2022/05/22 00:06:20;;;;;;;;;;;;;;;;;;350032;28;1008;-78
2022/05/22 00:06:30;;;;;;;;;;;;;;;;;;350125;28;936;-78
2022/05/22 00:06:40;;;;;;;;;;;;;;;;;;350005;28;948;-78
2022/05/22 00:06:50;;;;;;;;;;;;;;;;;;349961;28;1133;-78
2022/05/22 00:07:01;;;;;;;;;;;;;;;;;;350145;28;905;-78
2022/05/22 00:07:11;;;;;;;;;;;;;;;;;;350136;28;920;-78
2022/05/22 00:07:21;;;;;;;;;;;;;;;;;;349196;28;1587;-79
2022/05/22 00:07:31;;;;;;;;;;;;;;;;;;349320;28;1754;-78
2022/05/22 00:07:42;;;;;;;;;;;;;;;;;;349420;28;881;-78
2022/05/22 00:07:52;;;;;;;;;;;;;;;;;;350147;28;845;-78
2022/05/22 00:08:02;;;;;;;;;;;;;;;;;;349881;28;1158;-78
2022/05/22 00:08:13;;;;;;;;;;;;;;;;;;349853;28;1012;-78
2022/05/22 00:08:23;;;;;;;;;;;;;;;;;;350100;28;853;-78
2022/05/22 00:08:34;;;;;;;;;;;;;;;;;;350104;28;916;-77
2022/05/22 00:08:44;;;;;;;;;;;;;;;;;;350140;28;833;-78
2022/05/22 00:08:54;;;;;;;;;;;;;;;;;;350189;28;778;-77
2022/05/22 00:09:04;;;;;;;;;;;;;;;;;;350134;28;893;-78
2022/05/22 00:09:14;;;;;;;;;;;;;;;;;;350030;28;948;-77
2022/05/22 00:09:25;;;;;;;;;;;;;;;;;;350089;28;925;-77
2022/05/22 00:09:35;;;;;;;;;;;;;;;;;;350138;28;929;-77
2022/05/22 00:09:46;;;;;;;;;;;;;;;;;;350067;28;916;-78
2022/05/22 00:09:56;;;;;;;;;;;;;;;;;;350117;28;893;-77
2022/05/22 00:10:06;;;;;;;;;;;;;;;;;;350049;28;798;-78
2022/05/22 00:10:17;;;;;;;;;;;;;;;;;;350057;28;960;-77
2022/05/22 00:10:27;;;;;;;;;;;;;;;;;;350145;28;980;-77
2022/05/22 00:10:37;;;;;;;;;;;;;;;;;;350064;28;1083;-77
2022/05/22 00:10:48;;;;;;;;;;;;;;;;;;350090;28;842;-77
2022/05/22 00:10:58;;;;;;;;;;;;;;;;;;350051;28;945;-77
2022/05/22 00:11:08;;;;;;;;;;;;;;;;;;350060;28;834;-77
2022/05/22 00:11:18;;;;;;;;;;;;;;;;;;350103;28;877;-78
2022/05/22 00:11:29;;;;;;;;;;;;;;;;;;350085;28;960;-77
2022/05/22 00:11:39;;;;;;;;;;;;;;;;;;350044;28;1213;-77
2022/05/22 00:11:49;;;;;;;;;;;;;;;;;;349839;28;1042;-77
2022/05/22 00:12:00;;;;;;;;;;;;;;;;;;350104;28;925;-77
2022/05/22 00:12:11;;;;;;;;;;;;;;;;;;350027;28;933;-78
2022/05/22 00:12:21;;;;;;;;;;;;;;;;;;350119;28;999;-77
2022/05/22 00:12:31;;;;;;;;;;;;;;;;;;350074;28;891;-78
2022/05/22 00:12:42;;;;;;;;;;;;;;;;;;350015;28;1002;-77
2022/05/22 00:12:52;;;;;;;;;;;;;;;;;;350083;28;996;-78
2022/05/22 00:13:02;;;;;;;;;;;;;;;;;;350104;28;897;-78
2022/05/22 00:13:12;;;;;;;;;;;;;;;;;;350088;28;917;-78
2022/05/22 00:13:23;;;;;;;;;;;;;;;;;;349935;28;1971;-78
2022/05/22 00:13:33;;;;;;;;;;;;;;;;;;349926;28;1025;-78
2022/05/22 00:13:43;;;;;;;;;;;;;;;;;;350116;28;865;-78
2022/05/22 00:13:54;;;;;;;;;;;;;;;;;;350099;28;928;-78
2022/05/22 00:14:04;;;;;;;;;;;;;;;;;;350006;28;1369;-78
2022/05/22 00:14:15;;;;;;;;;;;;;;;;;;349873;28;1208;-78
2022/05/22 00:14:28;;;;;;;;;;;;;;;;;;350126;28;786;-78
2022/05/22 00:14:39;;;;;;;;;;;;;;;;;;350105;28;877;-78
2022/05/22 00:14:49;;;;;;;;;;;;;;;;;;350028;28;953;-78
2022/05/22 00:15:00;;;;;;;;;;;;;;;;;;350064;28;971;-78
2022/05/22 00:15:11;;;;;;;;;;;;;;;;;;350120;28;925;-78
2022/05/22 00:15:22;;;;;;;;;;;;;;;;;;350038;28;1275;-78
2022/05/22 00:15:32;;;;;;;;;;;;;;;;;;349886;28;1039;-78
2022/05/22 00:16:36;;;;;;;;;;;;;;;;;;350105;28;869;-78
2022/05/22 00:16:42;;;;;;;;;;;;;;;;;;348539;28;1160;-78
2022/05/22 00:16:52;;;;;;;;;;;;;;;;;;348650;28;842;-77
2022/05/22 00:17:03;;;;;;;;;;;;;;;;;;348723;28;980;-78
2022/05/22 00:17:13;;;;;;;;;;;;;;;;;;348686;28;976;-78
2022/05/22 00:17:23;;;;;;;;;;;;;;;;;;348698;28;992;-78
2022/05/22 00:17:34;;;;;;;;;;;;;;;;;;348610;28;1311;-77
2022/05/22 00:17:44;;;;;;;;;;;;;;;;;;348686;28;961;-77
2022/05/22 00:17:54;;;;;;;;;;;;;;;;;;348541;28;1009;-78
2022/05/22 00:18:04;;;;;;;;;;;;;;;;;;348676;28;929;-78
2022/05/22 00:18:15;;;;;;;;;;;;;;;;;;348718;28;917;-78
2022/05/22 00:18:25;;;;;;;;;;;;;;;;;;348679;28;794;-78
2022/05/22 00:18:35;;;;;;;;;;;;;;;;;;348658;28;880;-78
2022/05/22 00:18:45;;;;;;;;;;;;;;;;;;348720;28;917;-78
2022/05/22 00:18:55;;;;;;;;;;;;;;;;;;348616;28;977;-78
2022/05/22 00:19:26;;;;;;;;;;;;;;;;;;348684;28;797;-77
2022/05/22 00:19:37;;;;;;;;;;;;;;;;;;348141;28;1045;-77
2022/05/22 00:19:48;;;;;;;;;;;;;;;;;;348678;28;988;-77
2022/05/22 00:19:58;;;;;;;;;;;;;;;;;;348637;28;861;-78
2022/05/22 00:20:09;;;;;;;;;;;;;;;;;;348494;28;1146;-78
2022/05/22 00:20:20;;;;;;;;;;;;;;;;;;348726;28;865;-78
2022/05/22 00:20:30;;;;;;;;;;;;;;;;;;348664;28;917;-78
2022/05/22 00:20:40;;;;;;;;;;;;;;;;;;348642;28;881;-78
2022/05/22 00:20:50;;;;;;;;;;;;;;;;;;348709;28;933;-78
2022/05/22 00:21:00;;;;;;;;;;;;;;;;;;348701;28;779;-77
2022/05/22 00:21:11;;;;;;;;;;;;;;;;;;348686;28;889;-78
2022/05/22 00:21:21;;;;;;;;;;;;;;;;;;348678;28;945;-78
2022/05/22 00:21:31;;;;;;;;;;;;;;;;;;348728;28;794;-77
2022/05/22 00:21:42;;;;;;;;;;;;;;;;;;348686;28;937;-77
2022/05/22 00:21:52;;;;;;;;;;;;;;;;;;348643;28;1000;-77
2022/05/22 00:22:03;;;;;;;;;;;;;;;;;;348708;28;1005;-78
2022/05/22 00:22:13;;;;;;;;;;;;;;;;;;348647;28;983;-78
2022/05/22 00:22:24;;;;;;;;;;;;;;;;;;348683;28;1047;-77
2022/05/22 00:22:34;;;;;;;;;;;;;;;;;;348615;28;988;-78
2022/05/22 00:22:44;;;;;;;;;;;;;;;;;;348700;28;924;-78
2022/05/22 00:22:55;;;;;;;;;;;;;;;;;;348705;28;936;-77
2022/05/22 00:23:05;;;;;;;;;;;;;;;;;;348643;28;846;-78
2022/05/22 00:23:15;;;;;;;;;;;;;;;;;;348712;28;964;-78
2022/05/22 00:23:25;;;;;;;;;;;;;;;;;;348664;28;897;-78
2022/05/22 00:23:35;;;;;;;;;;;;;;;;;;348703;28;929;-78
2022/05/22 00:23:46;;;;;;;;;;;;;;;;;;348640;28;806;-78
2022/05/22 00:23:56;;;;;;;;;;;;;;;;;;348499;28;1023;-77
2022/05/22 00:24:06;;;;;;;;;;;;;;;;;;348693;28;925;-77
2022/05/22 00:24:18;;;;;;;;;;;;;;;;;;348428;28;1055;-77
2022/05/22 00:24:30;;;;;;;;;;;;;;;;;;348707;28;936;-78
2022/05/22 00:24:40;;;;;;;;;;;;;;;;;;349098;28;1308;-78
2022/05/22 00:24:52;;;;;;;;;;;;;;;;;;349978;28;929;-78
2022/05/22 00:25:05;;;;;;;;;;;;;;;;;;350089;28;888;-78
2022/05/22 00:25:16;;;;;;;;;;;;;;;;;;350057;28;968;-78
2022/05/22 00:25:26;;;;;;;;;;;;;;;;;;350073;28;774;-78
2022/05/22 00:25:36;;;;;;;;;;;;;;;;;;350097;28;885;-78
2022/05/22 00:25:46;;;;;;;;;;;;;;;;;;350021;28;921;-78
2022/05/22 00:25:57;;;;;;;;;;;;;;;;;;349887;28;1139;-78
2022/05/22 00:26:07;;;;;;;;;;;;;;;;;;350042;28;987;-78
2022/05/22 00:26:17;;;;;;;;;;;;;;;;;;350113;28;949;-78
2022/05/22 00:26:28;;;;;;;;;;;;;;;;;;350094;28;873;-78
2022/05/22 00:26:39;;;;;;;;;;;;;;;;;;350026;28;909;-78
2022/05/22 00:26:49;;;;;;;;;;;;;;;;;;349986;28;984;-77
2022/05/22 00:27:00;;;;;;;;;;;;;;;;;;350059;28;778;-78
2022/05/22 00:27:11;;;;;;;;;;;;;;;;;;350125;28;818;-78
2022/05/22 00:27:22;;;;;;;;;;;;;;;;;;350051;28;1011;-78
2022/05/22 00:27:32;;;;;;;;;;;;;;;;;;349999;28;774;-78
2022/05/22 00:27:43;;;;;;;;;;;;;;;;;;350081;28;952;-78
2022/05/22 00:27:54;;;;;;;;;;;;;;;;;;350095;28;818;-78
2022/05/22 00:28:04;;;;;;;;;;;;;;;;;;350049;28;932;-78
2022/05/22 00:28:14;;;;;;;;;;;;;;;;;;350080;28;979;-78
2022/05/22 00:28:25;;;;;;;;;;;;;;;;;;349988;28;1151;-77
2022/05/22 00:28:35;;;;;;;;;;;;;;;;;;350042;28;929;-78
2022/05/22 00:28:45;;;;;;;;;;;;;;;;;;350037;28;929;-77
2022/05/22 00:28:56;;;;;;;;;;;;;;;;;;349859;28;992;-78
2022/05/22 00:29:06;;;;;;;;;;;;;;;;;;349888;28;1022;-78
2022/05/22 00:29:17;;;;;;;;;;;;;;;;;;350072;28;908;-77
2022/05/22 00:29:28;;;;;;;;;;;;;;;;;;350122;28;833;-77
2022/05/22 00:29:39;;;;;;;;;;;;;;;;;;350017;28;1063;-77
2022/05/22 00:29:49;;;;;;;;;;;;;;;;;;350074;28;972;-77
2022/05/22 00:30:00;;;;;;;;;;;;;;;;;;350079;28;916;-77
2022/05/22 00:30:11;;;;;;;;;;;;;;;;;;348508;28;1607;-78
2022/05/22 00:30:21;;;;;;;;;;;;;;;;;;348864;28;1675;-78
2022/05/22 00:30:31;;;;;;;;;;;;;;;;;;350053;28;945;-78
2022/05/22 00:30:41;;;;;;;;;;;;;;;;;;350004;28;1067;-77
2022/05/22 00:30:52;;;;;;;;;;;;;;;;;;350034;28;941;-77
2022/05/22 00:31:02;;;;;;;;;;;;;;;;;;349937;28;985;-78
2022/05/22 00:31:12;;;;;;;;;;;;;;;;;;349877;28;1133;-78
2022/05/22 00:31:22;;;;;;;;;;;;;;;;;;349813;28;1600;-79
2022/05/22 00:31:33;;;;;;;;;;;;;;;;;;349527;28;1425;-79
2022/05/22 00:31:43;;;;;;;;;;;;;;;;;;350114;28;901;-78
2022/05/22 00:31:53;;;;;;;;;;;;;;;;;;350068;28;899;-78
2022/05/22 00:32:04;;;;;;;;;;;;;;;;;;350096;28;782;-78
2022/05/22 00:32:14;;;;;;;;;;;;;;;;;;350086;28;948;-78
2022/05/22 00:32:24;;;;;;;;;;;;;;;;;;350073;28;991;-78
2022/05/22 00:32:34;;;;;;;;;;;;;;;;;;349967;28;1010;-78
2022/05/22 00:32:45;;;;;;;;;;;;;;;;;;350018;28;944;-78
2022/05/22 00:32:55;;;;;;;;;;;;;;;;;;350112;28;924;-78
2022/05/22 00:33:06;;;;;;;;;;;;;;;;;;350024;28;996;-77
2022/05/22 00:33:16;;;;;;;;;;;;;;;;;;350044;28;1913;-77
2022/05/22 00:33:28;;;;;;;;;;;;;;;;;;350083;28;802;-77
2022/05/22 00:33:38;;;;;;;;;;;;;;;;;;349990;28;908;-77
2022/05/22 00:33:48;;;;;;;;;;;;;;;;;;350059;28;968;-78
2022/05/22 00:33:59;;;;;;;;;;;;;;;;;;350103;28;849;-78
2022/05/22 00:34:10;;;;;;;;;;;;;;;;;;350067;28;1031;-78
2022/05/22 00:34:20;;;;;;;;;;;;;;;;;;349905;28;1039;-78
2022/05/22 00:34:30;;;;;;;;;;;;;;;;;;350131;28;1201;-78
2022/05/22 00:34:40;;;;;;;;;;;;;;;;;;350039;28;1064;-78
2022/05/22 00:34:50;;;;;;;;;;;;;;;;;;350122;28;826;-78
2022/05/22 00:35:01;;;;;;;;;;;;;;;;;;350089;28;940;-78
2022/05/22 00:35:11;;;;;;;;;;;;;;;;;;349831;28;1142;-78
2022/05/22 00:35:21;;;;;;;;;;;;;;;;;;350058;28;842;-77
2022/05/22 00:35:31;;;;;;;;;;;;;;;;;;350028;28;992;-79
2022/05/22 00:35:42;;;;;;;;;;;;;;;;;;348624;28;1644;-78
2022/05/22 00:35:52;;;;;;;;;;;;;;;;;;348669;28;918;-78
2022/05/22 00:36:03;;;;;;;;;;;;;;;;;;348436;28;1018;-78
2022/05/22 00:36:13;;;;;;;;;;;;;;;;;;348628;28;933;-78
2022/05/22 00:36:23;;;;;;;;;;;;;;;;;;348489;28;1009;-78
2022/05/22 00:36:33;;;;;;;;;;;;;;;;;;348449;28;992;-78
2022/05/22 00:36:44;;;;;;;;;;;;;;;;;;348674;28;865;-77
2022/05/22 00:36:54;;;;;;;;;;;;;;;;;;348476;28;1057;-78
2022/05/22 00:37:05;;;;;;;;;;;;;;;;;;348669;28;906;-78
2022/05/22 00:37:16;;;;;;;;;;;;;;;;;;348550;28;890;-78
2022/05/22 00:37:26;;;;;;;;;;;;;;;;;;348652;28;980;-78
2022/05/22 00:37:37;;;;;;;;;;;;;;;;;;348678;28;869;-78
2022/05/22 00:37:47;;;;;;;;;;;;;;;;;;348659;28;955;-78
2022/05/22 00:37:57;;;;;;;;;;;;;;;;;;348731;28;905;-78
2022/05/22 00:38:07;;;;;;;;;;;;;;;;;;348633;28;1012;-78
2022/05/22 00:38:18;;;;;;;;;;;;;;;;;;348621;28;917;-77
2022/05/22 00:38:28;;;;;;;;;;;;;;;;;;348636;28;929;-77
2022/05/22 00:38:38;;;;;;;;;;;;;;;;;;348682;28;921;-77
2022/05/22 00:38:49;;;;;;;;;;;;;;;;;;348496;28;1003;-77
2022/05/22 00:38:59;;;;;;;;;;;;;;;;;;348652;28;933;-77
2022/05/22 00:39:09;;;;;;;;;;;;;;;;;;348623;28;1014;-78
2022/05/22 00:39:20;;;;;;;;;;;;;;;;;;348589;28;869;-78
2022/05/22 00:39:30;;;;;;;;;;;;;;;;;;348665;28;989;-78
2022/05/22 00:39:40;;;;;;;;;;;;;;;;;;348683;28;909;-78
2022/05/22 00:39:51;;;;;;;;;;;;;;;;;;348634;28;991;-77
2022/05/22 00:40:01;;;;;;;;;;;;;;;;;;348701;28;845;-77
2022/05/22 00:40:11;;;;;;;;;;;;;;;;;;348660;28;925;-77
2022/05/22 00:40:21;;;;;;;;;;;;;;;;;;348617;28;909;-77
2022/05/22 00:40:32;;;;;;;;;;;;;;;;;;348617;28;1001;-78
2022/05/22 00:40:42;;;;;;;;;;;;;;;;;;348689;28;948;-78
2022/05/22 00:40:53;;;;;;;;;;;;;;;;;;348704;28;865;-78
2022/05/22 00:41:03;;;;;;;;;;;;;;;;;;348675;28;1015;-77
2022/05/22 00:41:14;;;;;;;;;;;;;;;;;;348663;28;925;-78
2022/05/22 00:41:24;;;;;;;;;;;;;;;;;;348610;28;794;-78
2022/05/22 00:41:35;;;;;;;;;;;;;;;;;;348671;28;854;-78
2022/05/22 00:41:51;;;;;;;;;;;;;;;;;;348719;28;877;-78
2022/05/22 00:42:01;;;;;;;;;;;;;;;;;;348649;28;899;-78
2022/05/22 00:42:13;;;;;;;;;;;;;;;;;;348663;28;975;-78
2022/05/22 00:42:24;;;;;;;;;;;;;;;;;;348686;28;858;-78
2022/05/22 00:42:35;;;;;;;;;;;;;;;;;;348674;28;865;-78
2022/05/22 00:42:50;;;;;;;;;;;;;;;;;;348684;28;937;-77
2022/05/22 00:43:00;;;;;;;;;;;;;;;;;;348711;28;1003;-78
2022/05/22 00:43:29;;;;;;;;;;;;;;;;;;348651;28;995;-77
2022/05/22 00:43:41;;;;;;;;;;;;;;;;;;348650;28;945;-77
2022/05/22 00:43:52;;;;;;;;;;;;;;;;;;348562;28;916;-78
2022/05/22 00:44:03;;;;;;;;;;;;;;;;;;348556;28;945;-78
2022/05/22 00:44:13;;;;;;;;;;;;;;;;;;348721;28;865;-78
2022/05/22 00:44:24;;;;;;;;;;;;;;;;;;348678;28;877;-77
2022/05/22 00:44:34;;;;;;;;;;;;;;;;;;348614;28;993;-77
2022/05/22 00:44:44;;;;;;;;;;;;;;;;;;348673;28;886;-77
2022/05/22 00:44:55;;;;;;;;;;;;;;;;;;348694;28;929;-77
2022/05/22 00:45:05;;;;;;;;;;;;;;;;;;348613;28;923;-77
2022/05/22 00:45:16;;;;;;;;;;;;;;;;;;348649;28;901;-78
2022/05/22 00:45:26;;;;;;;;;;;;;;;;;;348603;28;921;-78
2022/05/22 00:45:36;;;;;;;;;;;;;;;;;;348579;28;840;-77
2022/05/22 00:45:46;;;;;;;;;;;;;;;;;;348677;28;810;-77
2022/05/22 00:45:57;;;;;;;;;;;;;;;;;;348660;28;996;-78
2022/05/22 00:46:11;;;;;;;;;;;;;;;;;;348646;28;984;-78
2022/05/22 00:46:21;;;;;;;;;;;;;;;;;;348711;28;979;-78
2022/05/22 00:46:33;;;;;;;;;;;;;;;;;;348477;28;1220;-78
2022/05/22 00:46:43;;;;;;;;;;;;;;;;;;348624;28;1211;-78
2022/05/22 00:46:54;;;;;;;;;;;;;;;;;;348687;28;806;-78
2022/05/22 00:47:04;;;;;;;;;;;;;;;;;;348669;28;1000;-78
2022/05/22 00:47:14;;;;;;;;;;;;;;;;;;348728;28;802;-78
2022/05/22 00:47:24;;;;;;;;;;;;;;;;;;348425;28;1005;-78
2022/05/22 00:47:34;;;;;;;;;;;;;;;;;;348545;28;992;-78
2022/05/22 00:47:45;;;;;;;;;;;;;;;;;;348618;28;862;-78
2022/05/22 00:47:55;;;;;;;;;;;;;;;;;;348476;28;1007;-78
2022/05/22 00:48:05;;;;;;;;;;;;;;;;;;348601;28;1048;-78
2022/05/22 00:48:15;;;;;;;;;;;;;;;;;;348635;28;996;-77
2022/05/22 00:48:26;;;;;;;;;;;;;;;;;;348584;28;1004;-78
2022/05/22 00:48:37;;;;;;;;;;;;;;;;;;348657;28;747;-78
2022/05/22 00:49:06;;;;;;;;;;;;;;;;;;348646;28;941;-77
2022/05/22 00:49:25;;;;;;;;;;;;;;;;;;348646;28;906;-78
2022/05/22 00:49:38;;;;;;;;;;;;;;;;;;347033;28;1281;-78
2022/05/22 00:49:49;;;;;;;;;;;;;;;;;;348456;28;933;-78
2022/05/22 00:50:02;;;;;;;;;;;;;;;;;;348662;28;849;-78
2022/05/22 00:50:13;;;;;;;;;;;;;;;;;;348596;28;956;-78
2022/05/22 00:50:23;;;;;;;;;;;;;;;;;;348641;28;925;-78
2022/05/22 00:50:33;;;;;;;;;;;;;;;;;;348659;28;1206;-78
2022/05/22 00:50:44;;;;;;;;;;;;;;;;;;348703;28;850;-77
2022/05/22 00:51:00;;;;;;;;;;;;;;;;;;348457;28;1016;-77
2022/05/22 00:51:15;;;;;;;;;;;;;;;;;;348665;28;854;-77
2022/05/22 00:51:40;;;;;;;;;;;;;;;;;;348699;28;842;-78
2022/05/22 00:52:10;;;;;;;;;;;;;;;;;;348632;28;905;-77
2022/05/22 00:52:29;;;;;;;;;;;;;;;;;;348691;28;850;-77
2022/05/22 00:52:43;;;;;;;;;;;;;;;;;;347020;28;1246;-77
2022/05/22 00:52:57;;;;;;;;;;;;;;;;;;348538;28;925;-78
2022/05/22 00:53:07;;;;;;;;;;;;;;;;;;348571;28;1032;-78
2022/05/22 00:53:18;;;;;;;;;;;;;;;;;;348661;28;925;-78
2022/05/22 00:53:31;;;;;;;;;;;;;;;;;;348697;28;794;-77
2022/05/22 00:53:44;;;;;;;;;;;;;;;;;;348674;28;933;-78
2022/05/22 00:53:57;;;;;;;;;;;;;;;;;;348526;28;1065;-78
2022/05/22 00:54:12;;;;;;;;;;;;;;;;;;348694;28;921;-78
2022/05/22 00:54:34;;;;;;;;;;;;;;;;;;348705;28;869;-77
2022/05/22 00:54:47;;;;;;;;;;;;;;;;;;348635;28;904;-78
2022/05/22 00:55:01;;;;;;;;;;;;;;;;;;348676;28;940;-77
2022/05/22 00:55:15;;;;;;;;;;;;;;;;;;348720;28;797;-78
2022/05/22 00:55:27;;;;;;;;;;;;;;;;;;348676;28;952;-77
2022/05/22 00:55:37;;;;;;;;;;;;;;;;;;348644;28;869;-77
2022/05/22 00:55:47;;;;;;;;;;;;;;;;;;348671;28;1063;-78
2022/05/22 00:55:59;;;;;;;;;;;;;;;;;;348627;28;870;-77
2022/05/22 00:56:11;;;;;;;;;;;;;;;;;;348700;28;885;-78
2022/05/22 00:56:25;;;;;;;;;;;;;;;;;;348685;28;956;-77
2022/05/22 00:56:38;;;;;;;;;;;;;;;;;;349209;28;1550;-78
2022/05/22 00:56:55;;;;;;;;;;;;;;;;;;350090;28;912;-78
2022/05/22 00:57:09;;;;;;;;;;;;;;;;;;350041;28;1026;-77
2022/05/22 00:57:26;;;;;;;;;;;;;;;;;;350014;28;920;-78
2022/05/22 00:57:57;;;;;;;;;;;;;;;;;;350028;28;1011;-78
2022/05/22 00:58:12;;;;;;;;;;;;;;;;;;350006;28;1022;-78
2022/05/22 00:58:24;;;;;;;;;;;;;;;;;;350021;28;932;-78
2022/05/22 00:58:35;;;;;;;;;;;;;;;;;;349871;28;1030;-78
2022/05/22 00:58:45;;;;;;;;;;;;;;;;;;350050;28;983;-78
2022/05/22 00:58:56;;;;;;;;;;;;;;;;;;350086;28;952;-78
2022/05/22 00:59:09;;;;;;;;;;;;;;;;;;350031;28;932;-78
2022/05/22 00:59:24;;;;;;;;;;;;;;;;;;349916;28;1134;-78
2022/05/22 00:59:37;;;;;;;;;;;;;;;;;;350040;28;901;-78
2022/05/22 00:59:49;;;;;;;;;;;;;;;;;;349791;28;1202;-78
2022/05/22 01:00:01;;;;;;;;;;;;;;;;;;349982;28;776;-78
2022/05/22 01:00:13;;;;;;;;;;;;;;;;;;349356;28;1218;-78
2022/05/22 01:00:28;;;;;;;;;;;;;;;;;;349022;28;1616;-78
2022/05/22 01:00:38;;;;;;;;;;;;;;;;;;349903;28;889;-78
2022/05/22 01:00:48;;;;;;;;;;;;;;;;;;349914;28;798;-78
2022/05/22 01:00:59;;;;;;;;;;;;;;;;;;349955;28;853;-78
2022/05/22 01:01:09;;;;;;;;;;;;;;;;;;349907;28;928;-78
2022/05/22 01:01:19;;;;;;;;;;;;;;;;;;349837;28;1118;-78
2022/05/22 01:01:30;;;;;;;;;;;;;;;;;;349934;28;964;-78
2022/05/22 01:01:40;;;;;;;;;;;;;;;;;;349971;28;818;-78
2022/05/22 01:01:51;;;;;;;;;;;;;;;;;;350108;28;817;-78
2022/05/22 01:02:02;;;;;;;;;;;;;;;;;;349963;28;924;-78
2022/05/22 01:02:15;;;;;;;;;;;;;;;;;;349879;28;1140;-77
2022/05/22 01:02:27;;;;;;;;;;;;;;;;;;350007;28;1043;-77
2022/05/22 01:03:37;;;;;;;;;;;;;;;;;;348605;28;895;-78
2022/05/22 01:03:48;;;;;;;;;;;;;;;;;;348548;28;1100;-78
2022/05/22 01:03:58;;;;;;;;;;;;;;;;;;348650;28;987;-78
2022/05/22 01:04:14;;;;;;;;;;;;;;;;;;348662;28;857;-77
2022/05/22 01:04:26;;;;;;;;;;;;;;;;;;348512;28;1033;-78
2022/05/22 01:04:36;;;;;;;;;;;;;;;;;;348687;28;915;-78
2022/05/22 01:04:49;;;;;;;;;;;;;;;;;;348608;28;944;-78
2022/05/22 01:04:59;;;;;;;;;;;;;;;;;;348597;28;1016;-78
2022/05/22 01:05:10;;;;;;;;;;;;;;;;;;348629;28;897;-78
2022/05/22 01:05:20;;;;;;;;;;;;;;;;;;348685;28;909;-78
2022/05/22 01:05:30;;;;;;;;;;;;;;;;;;348653;28;1004;-78
2022/05/22 01:05:41;;;;;;;;;;;;;;;;;;348605;28;968;-78
2022/05/22 01:05:51;;;;;;;;;;;;;;;;;;348656;28;1025;-77
2022/05/22 01:06:09;;;;;;;;;;;;;;;;;;348658;28;932;-78
2022/05/22 01:06:24;;;;;;;;;;;;;;;;;;348568;28;980;-77
2022/05/22 01:06:34;;;;;;;;;;;;;;;;;;348665;28;987;-78
2022/05/22 01:06:45;;;;;;;;;;;;;;;;;;348641;28;924;-78
2022/05/22 01:06:56;;;;;;;;;;;;;;;;;;348605;28;1007;-78
2022/05/22 01:07:07;;;;;;;;;;;;;;;;;;348613;28;928;-78
2022/05/22 01:07:18;;;;;;;;;;;;;;;;;;348678;28;860;-78
2022/05/22 01:07:28;;;;;;;;;;;;;;;;;;348652;28;884;-78
2022/05/22 01:07:39;;;;;;;;;;;;;;;;;;348611;28;980;-77
2022/05/22 01:07:49;;;;;;;;;;;;;;;;;;348637;28;960;-77
2022/05/22 01:08:00;;;;;;;;;;;;;;;;;;348669;28;932;-77
2022/05/22 01:08:10;;;;;;;;;;;;;;;;;;348656;28;810;-78
2022/05/22 01:08:20;;;;;;;;;;;;;;;;;;348739;28;909;-78
2022/05/22 01:08:31;;;;;;;;;;;;;;;;;;348519;28;913;-78
2022/05/22 01:08:42;;;;;;;;;;;;;;;;;;348676;28;1023;-77
2022/05/22 01:08:53;;;;;;;;;;;;;;;;;;348655;28;830;-77
2022/05/22 01:09:03;;;;;;;;;;;;;;;;;;348537;28;1167;-77
2022/05/22 01:09:13;;;;;;;;;;;;;;;;;;348512;28;1181;-78
2022/05/22 01:09:23;;;;;;;;;;;;;;;;;;348566;28;1036;-78
2022/05/22 01:09:34;;;;;;;;;;;;;;;;;;348510;28;1143;-78
2022/05/22 01:09:45;;;;;;;;;;;;;;;;;;348698;28;904;-78
2022/05/22 01:09:55;;;;;;;;;;;;;;;;;;348653;28;991;-78
2022/05/22 01:10:05;;;;;;;;;;;;;;;;;;348602;28;961;-78
2022/05/22 01:10:16;;;;;;;;;;;;;;;;;;348381;28;1353;-78
2022/05/22 01:10:33;;;;;;;;;;;;;;;;;;348650;28;936;-78
2022/05/22 01:10:48;;;;;;;;;;;;;;;;;;348658;28;1012;-78
2022/05/22 01:11:03;;;;;;;;;;;;;;;;;;348636;28;894;-78
2022/05/22 01:11:19;;;;;;;;;;;;;;;;;;348621;28;995;-77
2022/05/22 01:11:36;;;;;;;;;;;;;;;;;;348637;28;944;-77
2022/05/22 01:11:47;;;;;;;;;;;;;;;;;;348646;28;881;-77
2022/05/22 01:12:12;;;;;;;;;;;;;;;;;;348618;28;1003;-77
2022/05/22 01:12:23;;;;;;;;;;;;;;;;;;348629;28;853;-77
2022/05/22 01:12:33;;;;;;;;;;;;;;;;;;348481;28;1026;-77
2022/05/22 01:12:45;;;;;;;;;;;;;;;;;;348684;28;881;-78
2022/05/22 01:12:55;;;;;;;;;;;;;;;;;;348509;28;982;-78
2022/05/22 01:13:06;;;;;;;;;;;;;;;;;;348621;28;905;-78
2022/05/22 01:13:19;;;;;;;;;;;;;;;;;;348601;28;955;-77
2022/05/22 01:13:32;;;;;;;;;;;;;;;;;;348667;28;798;-78
2022/05/22 01:13:44;;;;;;;;;;;;;;;;;;348722;28;983;-78
2022/05/22 01:14:01;;;;;;;;;;;;;;;;;;348586;28;997;-78
2022/05/22 01:14:16;;;;;;;;;;;;;;;;;;348650;28;964;-78
2022/05/22 01:14:27;;;;;;;;;;;;;;;;;;348622;28;932;-78
2022/05/22 01:14:39;;;;;;;;;;;;;;;;;;348597;28;972;-78
2022/05/22 01:14:51;;;;;;;;;;;;;;;;;;348627;28;877;-78
2022/05/22 01:15:02;;;;;;;;;;;;;;;;;;348586;28;900;-77
2022/05/22 01:15:13;;;;;;;;;;;;;;;;;;348608;28;980;-77
2022/05/22 01:15:23;;;;;;;;;;;;;;;;;;348549;28;1347;-78
2022/05/22 01:15:33;;;;;;;;;;;;;;;;;;348590;28;921;-78
2022/05/22 01:15:44;;;;;;;;;;;;;;;;;;348530;28;1186;-78
2022/05/22 01:15:54;;;;;;;;;;;;;;;;;;348645;28;964;-77
2022/05/22 01:16:05;;;;;;;;;;;;;;;;;;348547;28;790;-77
2022/05/22 01:16:16;;;;;;;;;;;;;;;;;;348626;28;1368;-78
2022/05/22 01:16:26;;;;;;;;;;;;;;;;;;348602;28;925;-78
2022/05/22 01:16:36;;;;;;;;;;;;;;;;;;348603;28;1002;-78
2022/05/22 01:16:47;;;;;;;;;;;;;;;;;;348602;28;853;-78
2022/05/22 01:17:05;;;;;;;;;;;;;;;;;;348622;28;980;-77
2022/05/22 01:17:15;;;;;;;;;;;;;;;;;;348613;28;794;-77
2022/05/22 01:17:25;;;;;;;;;;;;;;;;;;348653;28;912;-78
2022/05/22 01:17:40;;;;;;;;;;;;;;;;;;348646;28;897;-78
2022/05/22 01:17:50;;;;;;;;;;;;;;;;;;348613;28;888;-78
2022/05/22 01:18:00;;;;;;;;;;;;;;;;;;348534;28;1051;-78
2022/05/22 01:18:10;;;;;;;;;;;;;;;;;;348619;28;849;-78
2022/05/22 01:18:21;;;;;;;;;;;;;;;;;;348558;28;972;-78
2022/05/22 01:18:39;;;;;;;;;;;;;;;;;;348660;28;861;-78
2022/05/22 01:18:54;;;;;;;;;;;;;;;;;;348613;28;928;-78
2022/05/22 01:19:18;;;;;;;;;;;;;;;;;;348542;28;917;-77
2022/05/22 01:19:28;;;;;;;;;;;;;;;;;;348661;28;928;-78
2022/05/22 01:19:39;;;;;;;;;;;;;;;;;;348608;28;857;-77
2022/05/22 01:19:56;;;;;;;;;;;;;;;;;;348547;28;1012;-77
2022/05/22 01:20:07;;;;;;;;;;;;;;;;;;348642;28;897;-78
2022/05/22 01:20:17;;;;;;;;;;;;;;;;;;348541;28;878;-78
2022/05/22 01:20:27;;;;;;;;;;;;;;;;;;348571;28;1016;-78
2022/05/22 01:20:44;;;;;;;;;;;;;;;;;;348615;28;976;-78
2022/05/22 01:20:55;;;;;;;;;;;;;;;;;;348660;28;884;-78
2022/05/22 01:21:09;;;;;;;;;;;;;;;;;;348616;28;908;-78
2022/05/22 01:21:21;;;;;;;;;;;;;;;;;;348630;28;991;-78
2022/05/22 01:21:31;;;;;;;;;;;;;;;;;;348651;28;916;-78
2022/05/22 01:21:48;;;;;;;;;;;;;;;;;;348639;28;904;-77
2022/05/22 01:22:06;;;;;;;;;;;;;;;;;;348584;28;853;-78
2022/05/22 01:22:17;;;;;;;;;;;;;;;;;;348649;28;924;-77
2022/05/22 01:22:27;;;;;;;;;;;;;;;;;;348689;28;869;-77
2022/05/22 01:22:37;;;;;;;;;;;;;;;;;;348620;28;964;-77
2022/05/22 01:22:48;;;;;;;;;;;;;;;;;;348699;28;873;-77
2022/05/22 01:22:58;;;;;;;;;;;;;;;;;;348598;28;909;-78
2022/05/22 01:23:08;;;;;;;;;;;;;;;;;;348666;28;1574;-79
2022/05/22 01:23:19;;;;;;;;;;;;;;;;;;348518;28;829;-78
2022/05/22 01:23:29;;;;;;;;;;;;;;;;;;348514;28;1255;-78
2022/05/22 01:23:40;;;;;;;;;;;;;;;;;;348613;28;889;-78